CheckWX is a tool to help pilots better visualize weather data.  It is not intended as a substitute for an official pre-flight weather briefing.

11:14:47 UTC

WSSS TAF
Singapore Changi International Airport
Singapore, Singapore
TAF AMD WSSS 140800Z 1408/1512 03010KT 7000 -RA FEW015 SCT020 TEMPO 1408/1409 4500 SHRA FEW012TCU BKN015 TEMPO 1505/1508 3000 TSRA FEW012CB BKN015

Dec-14@
08:00 UTC

Dec-14 @ 08:00 UTC

Dec-15@
12:00 UTC

Dec-15 @ 12:00 UTC

TAF AMD WSSS 140800Z 1408/1512 03010KT 7000 -RA FEW015 SCT020
Wind
  • 030° at 10 KTS
Conditions
Light Rain
Cloud Levels
  • Few at 1,500' AGL
  • Scattered at 2,000' AGL

Dec-14@
08:00 UTC

Dec-14 @ 08:00 UTC

Dec-14@
09:00 UTC

Dec-14 @ 09:00 UTC

TEMPO 1408/1409 4500 SHRA FEW012TCU BKN015

Expired

Conditions
Rain
Cloud Levels
  • Few at 1,200' AGL
  • Broken at 1,500' AGL

Dec-15@
05:00 UTC

Dec-15 @ 05:00 UTC

Dec-15@
08:00 UTC

Dec-15 @ 08:00 UTC

TEMPO 1505/1508 3000 TSRA FEW012CB BKN015

Temporary

Temporary Changes expected for less than half the time period

Conditions
Thunderstorm, Rain
Cloud Levels
  • Few at 1,200' AGL
  • Broken at 1,500' AGL